Terminal Aerodrome Forecast
Issued by NWS

Home | Current Version | Previous Version | Text Only | Print | Product List | Glossary On
Versions: 1 2 3 4 5 6 7 8 9 10 11 12 13
000
FTUS46 KMTR 031100
TAFSTS
TAF
KSTS 031120Z 0312/0412 VRB03KT P6SM OVC005
     FM031800 VRB03KT P6SM SCT010
     FM032000 17010KT P6SM SKC
     FM040300 16006KT P6SM SKC
     FM040600 VRB03KT P6SM OVC007=

USA.gov is the U.S. government's official web portal to all federal, state and local government web resources and services.